sensor_id;sensor_type;location;lat;lon;timestamp;P1;durP1;ratioP1;P2;durP2;ratioP2
75885;SDS011;64561;44.018;10.144;2024-02-28T00:01:05;4.63;;;1.17;;
75885;SDS011;64561;44.018;10.144;2024-02-28T00:03:32;2.95;;;1.42;;
75885;SDS011;64561;44.018;10.144;2024-02-28T00:06:00;6.30;;;1.65;;
75885;SDS011;64561;44.018;10.144;2024-02-28T00:08:28;5.10;;;1.42;;
75885;SDS011;64561;44.018;10.144;2024-02-28T00:10:55;3.70;;;1.42;;
75885;SDS011;64561;44.018;10.144;2024-02-28T00:13:22;6.97;;;2.33;;
75885;SDS011;64561;44.018;10.144;2024-02-28T00:15:51;3.85;;;1.15;;
75885;SDS011;64561;44.018;10.144;2024-02-28T00:18:18;5.72;;;1.38;;
75885;SDS011;64561;44.018;10.144;2024-02-28T00:20:46;5.55;;;1.30;;
75885;SDS011;64561;44.018;10.144;2024-02-28T00:23:13;5.18;;;1.50;;
75885;SDS011;64561;44.018;10.144;2024-02-28T00:25:41;4.03;;;1.73;;
75885;SDS011;64561;44.018;10.144;2024-02-28T00:28:08;7.43;;;2.38;;
75885;SDS011;64561;44.018;10.144;2024-02-28T00:30:35;3.95;;;1.15;;
75885;SDS011;64561;44.018;10.144;2024-02-28T00:33:03;5.15;;;1.50;;
75885;SDS011;64561;44.018;10.144;2024-02-28T00:35:31;3.88;;;1.13;;
75885;SDS011;64561;44.018;10.144;2024-02-28T00:38:06;4.35;;;1.63;;
75885;SDS011;64561;44.018;10.144;2024-02-28T00:40:33;3.13;;;1.98;;
75885;SDS011;64561;44.018;10.144;2024-02-28T00:43:01;4.10;;;1.38;;
75885;SDS011;64561;44.018;10.144;2024-02-28T00:45:29;7.88;;;1.48;;
75885;SDS011;64561;44.018;10.144;2024-02-28T00:47:56;2.63;;;0.90;;
75885;SDS011;64561;44.018;10.144;2024-02-28T00:50:23;3.80;;;1.40;;
75885;SDS011;64561;44.018;10.144;2024-02-28T00:52:51;8.25;;;1.67;;
75885;SDS011;64561;44.018;10.144;2024-02-28T00:55:18;5.38;;;1.58;;
75885;SDS011;64561;44.018;10.144;2024-02-28T00:57:45;6.45;;;1.38;;
75885;SDS011;64561;44.018;10.144;2024-02-28T01:00:13;4.05;;;1.55;;
75885;SDS011;64561;44.018;10.144;2024-02-28T01:02:40;3.33;;;0.85;;
75885;SDS011;64561;44.018;10.144;2024-02-28T01:05:11;7.43;;;1.27;;
75885;SDS011;64561;44.018;10.144;2024-02-28T01:07:38;6.45;;;1.45;;
75885;SDS011;64561;44.018;10.144;2024-02-28T01:10:06;3.60;;;1.25;;
75885;SDS011;64561;44.018;10.144;2024-02-28T01:12:34;3.78;;;1.05;;
75885;SDS011;64561;44.018;10.144;2024-02-28T01:15:01;5.88;;;1.52;;
75885;SDS011;64561;44.018;10.144;2024-02-28T01:17:30;4.22;;;1.00;;
75885;SDS011;64561;44.018;10.144;2024-02-28T01:19:57;15.52;;;5.68;;
75885;SDS011;64561;44.018;10.144;2024-02-28T01:22:24;8.63;;;3.15;;
75885;SDS011;64561;44.018;10.144;2024-02-28T01:24:52;6.07;;;1.83;;
75885;SDS011;64561;44.018;10.144;2024-02-28T01:27:19;4.22;;;1.27;;
75885;SDS011;64561;44.018;10.144;2024-02-28T01:29:47;3.95;;;1.02;;
75885;SDS011;64561;44.018;10.144;2024-02-28T01:32:14;4.57;;;1.80;;
75885;SDS011;64561;44.018;10.144;2024-02-28T01:34:41;7.80;;;2.42;;
75885;SDS011;64561;44.018;10.144;2024-02-28T01:37:08;5.93;;;1.15;;
75885;SDS011;64561;44.018;10.144;2024-02-28T01:39:35;5.05;;;1.67;;
75885;SDS011;64561;44.018;10.144;2024-02-28T01:42:02;3.92;;;2.20;;
75885;SDS011;64561;44.018;10.144;2024-02-28T01:44:30;8.20;;;2.50;;
75885;SDS011;64561;44.018;10.144;2024-02-28T01:46:57;5.63;;;2.20;;
75885;SDS011;64561;44.018;10.144;2024-02-28T01:49:25;7.35;;;3.10;;
75885;SDS011;64561;44.018;10.144;2024-02-28T01:51:52;5.85;;;2.22;;
75885;SDS011;64561;44.018;10.144;2024-02-28T01:54:20;5.80;;;2.80;;
75885;SDS011;64561;44.018;10.144;2024-02-28T01:56:48;8.80;;;2.40;;
75885;SDS011;64561;44.018;10.144;2024-02-28T01:59:16;13.13;;;3.15;;
75885;SDS011;64561;44.018;10.144;2024-02-28T02:01:44;5.25;;;2.13;;
75885;SDS011;64561;44.018;10.144;2024-02-28T02:04:12;5.13;;;2.33;;
75885;SDS011;64561;44.018;10.144;2024-02-28T02:06:41;8.00;;;2.85;;
75885;SDS011;64561;44.018;10.144;2024-02-28T02:09:11;7.10;;;3.70;;
75885;SDS011;64561;44.018;10.144;2024-02-28T02:11:39;10.98;;;4.20;;
75885;SDS011;64561;44.018;10.144;2024-02-28T02:14:06;7.43;;;3.58;;
75885;SDS011;64561;44.018;10.144;2024-02-28T02:16:34;8.93;;;3.63;;
75885;SDS011;64561;44.018;10.144;2024-02-28T02:19:02;10.20;;;3.33;;
75885;SDS011;64561;44.018;10.144;2024-02-28T02:21:31;5.47;;;3.20;;
75885;SDS011;64561;44.018;10.144;2024-02-28T02:24:19;7.32;;;2.42;;
75885;SDS011;64561;44.018;10.144;2024-02-28T02:26:47;5.10;;;2.33;;
75885;SDS011;64561;44.018;10.144;2024-02-28T02:29:14;7.18;;;2.10;;
75885;SDS011;64561;44.018;10.144;2024-02-28T02:31:41;4.85;;;1.85;;
75885;SDS011;64561;44.018;10.144;2024-02-28T02:34:09;6.78;;;2.55;;
75885;SDS011;64561;44.018;10.144;2024-02-28T02:36:36;4.60;;;2.30;;
75885;SDS011;64561;44.018;10.144;2024-02-28T02:39:03;4.78;;;2.20;;
75885;SDS011;64561;44.018;10.144;2024-02-28T02:41:30;5.82;;;2.10;;
75885;SDS011;64561;44.018;10.144;2024-02-28T02:43:57;6.57;;;2.13;;
75885;SDS011;64561;44.018;10.144;2024-02-28T02:46:25;5.90;;;2.53;;
75885;SDS011;64561;44.018;10.144;2024-02-28T02:48:52;3.80;;;2.60;;
75885;SDS011;64561;44.018;10.144;2024-02-28T02:51:19;5.10;;;2.05;;
75885;SDS011;64561;44.018;10.144;2024-02-28T02:53:47;4.25;;;1.67;;
75885;SDS011;64561;44.018;10.144;2024-02-28T02:56:14;9.40;;;2.13;;
75885;SDS011;64561;44.018;10.144;2024-02-28T02:58:41;4.88;;;1.77;;
75885;SDS011;64561;44.018;10.144;2024-02-28T03:01:08;3.95;;;1.85;;
75885;SDS011;64561;44.018;10.144;2024-02-28T03:03:36;4.43;;;2.33;;
75885;SDS011;64561;44.018;10.144;2024-02-28T03:06:04;4.30;;;1.75;;
75885;SDS011;64561;44.018;10.144;2024-02-28T03:08:32;9.05;;;2.55;;
75885;SDS011;64561;44.018;10.144;2024-02-28T03:10:59;2.85;;;1.50;;
75885;SDS011;64561;44.018;10.144;2024-02-28T03:13:26;4.43;;;2.05;;
75885;SDS011;64561;44.018;10.144;2024-02-28T03:15:54;5.90;;;1.70;;
75885;SDS011;64561;44.018;10.144;2024-02-28T03:18:22;2.67;;;1.35;;
75885;SDS011;64561;44.018;10.144;2024-02-28T03:20:49;4.78;;;2.10;;
75885;SDS011;64561;44.018;10.144;2024-02-28T03:23:16;3.35;;;1.30;;
75885;SDS011;64561;44.018;10.144;2024-02-28T03:25:44;5.60;;;1.52;;
75885;SDS011;64561;44.018;10.144;2024-02-28T03:28:11;4.55;;;1.60;;
75885;SDS011;64561;44.018;10.144;2024-02-28T03:30:39;7.07;;;2.03;;
75885;SDS011;64561;44.018;10.144;2024-02-28T03:33:06;6.20;;;2.92;;
75885;SDS011;64561;44.018;10.144;2024-02-28T03:35:35;8.35;;;1.80;;
75885;SDS011;64561;44.018;10.144;2024-02-28T03:38:02;2.92;;;1.40;;
75885;SDS011;64561;44.018;10.144;2024-02-28T03:40:30;6.55;;;1.95;;
75885;SDS011;64561;44.018;10.144;2024-02-28T03:42:57;4.22;;;2.00;;
75885;SDS011;64561;44.018;10.144;2024-02-28T03:45:27;4.38;;;2.15;;
75885;SDS011;64561;44.018;10.144;2024-02-28T03:47:56;4.10;;;1.90;;
75885;SDS011;64561;44.018;10.144;2024-02-28T03:50:23;8.55;;;2.42;;
75885;SDS011;64561;44.018;10.144;2024-02-28T03:52:51;4.35;;;2.00;;
75885;SDS011;64561;44.018;10.144;2024-02-28T03:55:18;7.30;;;2.08;;
75885;SDS011;64561;44.018;10.144;2024-02-28T03:57:49;3.15;;;1.95;;
75885;SDS011;64561;44.018;10.144;2024-02-28T04:00:19;7.25;;;2.45;;
75885;SDS011;64561;44.018;10.144;2024-02-28T04:02:46;4.30;;;2.35;;
75885;SDS011;64561;44.018;10.144;2024-02-28T04:05:13;5.90;;;2.33;;
75885;SDS011;64561;44.018;10.144;2024-02-28T04:07:40;9.55;;;2.80;;
75885;SDS011;64561;44.018;10.144;2024-02-28T04:10:08;5.22;;;2.08;;
75885;SDS011;64561;44.018;10.144;2024-02-28T04:12:38;5.90;;;2.47;;
75885;SDS011;64561;44.018;10.144;2024-02-28T04:15:05;5.50;;;2.22;;
75885;SDS011;64561;44.018;10.144;2024-02-28T04:17:32;6.65;;;2.45;;
75885;SDS011;64561;44.018;10.144;2024-02-28T04:19:59;5.07;;;2.45;;
75885;SDS011;64561;44.018;10.144;2024-02-28T04:22:31;5.88;;;2.95;;
75885;SDS011;64561;44.018;10.144;2024-02-28T04:24:58;6.07;;;2.80;;
75885;SDS011;64561;44.018;10.144;2024-02-28T04:27:25;7.90;;;2.88;;
75885;SDS011;64561;44.018;10.144;2024-02-28T04:29:52;5.85;;;2.88;;
75885;SDS011;64561;44.018;10.144;2024-02-28T04:32:20;6.40;;;2.85;;
75885;SDS011;64561;44.018;10.144;2024-02-28T04:34:47;7.95;;;3.45;;
75885;SDS011;64561;44.018;10.144;2024-02-28T04:37:14;7.22;;;2.83;;
75885;SDS011;64561;44.018;10.144;2024-02-28T04:39:41;8.20;;;2.47;;
75885;SDS011;64561;44.018;10.144;2024-02-28T04:42:08;5.75;;;2.60;;
75885;SDS011;64561;44.018;10.144;2024-02-28T04:44:36;7.65;;;3.17;;
75885;SDS011;64561;44.018;10.144;2024-02-28T04:47:03;4.90;;;2.30;;
75885;SDS011;64561;44.018;10.144;2024-02-28T04:49:31;4.00;;;2.13;;
75885;SDS011;64561;44.018;10.144;2024-02-28T04:51:58;5.22;;;2.00;;
75885;SDS011;64561;44.018;10.144;2024-02-28T04:54:25;8.27;;;2.35;;
75885;SDS011;64561;44.018;10.144;2024-02-28T04:56:52;7.25;;;2.40;;
75885;SDS011;64561;44.018;10.144;2024-02-28T04:59:19;6.30;;;1.80;;
75885;SDS011;64561;44.018;10.144;2024-02-28T05:01:46;4.85;;;1.80;;
75885;SDS011;64561;44.018;10.144;2024-02-28T05:04:14;4.95;;;2.05;;
75885;SDS011;64561;44.018;10.144;2024-02-28T05:06:41;6.22;;;1.50;;
75885;SDS011;64561;44.018;10.144;2024-02-28T05:09:09;2.55;;;1.40;;
75885;SDS011;64561;44.018;10.144;2024-02-28T05:11:36;8.48;;;2.38;;
75885;SDS011;64561;44.018;10.144;2024-02-28T05:14:03;5.55;;;1.70;;
75885;SDS011;64561;44.018;10.144;2024-02-28T05:16:31;6.88;;;1.75;;
75885;SDS011;64561;44.018;10.144;2024-02-28T05:18:59;4.65;;;1.35;;
75885;SDS011;64561;44.018;10.144;2024-02-28T05:21:26;2.90;;;1.60;;
75885;SDS011;64561;44.018;10.144;2024-02-28T05:23:54;3.65;;;1.40;;
75885;SDS011;64561;44.018;10.144;2024-02-28T05:26:21;4.78;;;1.63;;
75885;SDS011;64561;44.018;10.144;2024-02-28T05:28:48;5.30;;;1.77;;
75885;SDS011;64561;44.018;10.144;2024-02-28T05:31:20;7.55;;;1.50;;
75885;SDS011;64561;44.018;10.144;2024-02-28T05:33:50;7.38;;;1.75;;
75885;SDS011;64561;44.018;10.144;2024-02-28T05:36:22;5.28;;;1.45;;
75885;SDS011;64561;44.018;10.144;2024-02-28T05:38:51;2.78;;;1.35;;
75885;SDS011;64561;44.018;10.144;2024-02-28T05:41:18;4.25;;;1.63;;
75885;SDS011;64561;44.018;10.144;2024-02-28T05:43:46;6.20;;;2.20;;
75885;SDS011;64561;44.018;10.144;2024-02-28T05:46:14;4.68;;;1.73;;
75885;SDS011;64561;44.018;10.144;2024-02-28T05:48:43;5.03;;;1.80;;
75885;SDS011;64561;44.018;10.144;2024-02-28T05:51:11;11.10;;;2.03;;
75885;SDS011;64561;44.018;10.144;2024-02-28T05:53:40;4.70;;;1.85;;
75885;SDS011;64561;44.018;10.144;2024-02-28T05:56:09;7.57;;;2.67;;
75885;SDS011;64561;44.018;10.144;2024-02-28T05:58:44;4.47;;;2.50;;
75885;SDS011;64561;44.018;10.144;2024-02-28T06:01:12;6.10;;;2.45;;
75885;SDS011;64561;44.018;10.144;2024-02-28T06:03:42;5.00;;;2.40;;
75885;SDS011;64561;44.018;10.144;2024-02-28T06:06:10;4.82;;;2.10;;
75885;SDS011;64561;44.018;10.144;2024-02-28T06:08:38;5.70;;;2.20;;
75885;SDS011;64561;44.018;10.144;2024-02-28T06:11:06;6.97;;;2.28;;
75885;SDS011;64561;44.018;10.144;2024-02-28T06:13:35;5.82;;;2.35;;
75885;SDS011;64561;44.018;10.144;2024-02-28T06:16:03;7.10;;;3.15;;
75885;SDS011;64561;44.018;10.144;2024-02-28T06:18:30;7.93;;;3.17;;
75885;SDS011;64561;44.018;10.144;2024-02-28T06:21:00;5.03;;;2.30;;
75885;SDS011;64561;44.018;10.144;2024-02-28T06:23:28;3.55;;;2.10;;
75885;SDS011;64561;44.018;10.144;2024-02-28T06:25:56;6.40;;;3.00;;
75885;SDS011;64561;44.018;10.144;2024-02-28T06:28:24;4.68;;;2.63;;
75885;SDS011;64561;44.018;10.144;2024-02-28T06:30:51;6.65;;;2.45;;
75885;SDS011;64561;44.018;10.144;2024-02-28T06:33:19;7.80;;;2.72;;
75885;SDS011;64561;44.018;10.144;2024-02-28T06:35:46;6.57;;;2.90;;
75885;SDS011;64561;44.018;10.144;2024-02-28T06:38:13;5.18;;;4.00;;
75885;SDS011;64561;44.018;10.144;2024-02-28T06:40:40;10.25;;;3.80;;
75885;SDS011;64561;44.018;10.144;2024-02-28T06:43:08;10.13;;;3.42;;
75885;SDS011;64561;44.018;10.144;2024-02-28T06:45:35;8.52;;;3.42;;
75885;SDS011;64561;44.018;10.144;2024-02-28T06:48:04;6.13;;;3.58;;
75885;SDS011;64561;44.018;10.144;2024-02-28T06:50:32;8.23;;;4.55;;
75885;SDS011;64561;44.018;10.144;2024-02-28T06:52:59;7.60;;;3.30;;
75885;SDS011;64561;44.018;10.144;2024-02-28T06:55:27;10.02;;;2.92;;
75885;SDS011;64561;44.018;10.144;2024-02-28T06:57:54;6.82;;;2.97;;
75885;SDS011;64561;44.018;10.144;2024-02-28T07:00:21;15.35;;;3.70;;
75885;SDS011;64561;44.018;10.144;2024-02-28T07:02:48;5.28;;;3.03;;
75885;SDS011;64561;44.018;10.144;2024-02-28T07:05:16;10.02;;;3.15;;
75885;SDS011;64561;44.018;10.144;2024-02-28T07:07:43;8.00;;;3.10;;
75885;SDS011;64561;44.018;10.144;2024-02-28T07:10:10;7.47;;;2.90;;
75885;SDS011;64561;44.018;10.144;2024-02-28T07:12:38;6.03;;;2.28;;
75885;SDS011;64561;44.018;10.144;2024-02-28T07:15:05;7.55;;;2.20;;
75885;SDS011;64561;44.018;10.144;2024-02-28T07:17:33;9.75;;;2.58;;
75885;SDS011;64561;44.018;10.144;2024-02-28T07:20:00;6.97;;;2.63;;
75885;SDS011;64561;44.018;10.144;2024-02-28T07:22:29;12.80;;;3.67;;
75885;SDS011;64561;44.018;10.144;2024-02-28T07:24:56;8.38;;;3.28;;
75885;SDS011;64561;44.018;10.144;2024-02-28T07:27:23;9.52;;;3.47;;
75885;SDS011;64561;44.018;10.144;2024-02-28T07:29:53;13.07;;;3.78;;
75885;SDS011;64561;44.018;10.144;2024-02-28T07:32:21;7.15;;;2.60;;
75885;SDS011;64561;44.018;10.144;2024-02-28T07:34:48;9.55;;;3.38;;
75885;SDS011;64561;44.018;10.144;2024-02-28T07:37:15;7.55;;;3.22;;
75885;SDS011;64561;44.018;10.144;2024-02-28T07:39:43;7.20;;;3.47;;
75885;SDS011;64561;44.018;10.144;2024-02-28T07:42:10;12.93;;;4.55;;
75885;SDS011;64561;44.018;10.144;2024-02-28T07:44:38;12.70;;;4.18;;
75885;SDS011;64561;44.018;10.144;2024-02-28T07:47:05;16.38;;;5.32;;
75885;SDS011;64561;44.018;10.144;2024-02-28T07:49:33;10.05;;;4.47;;
75885;SDS011;64561;44.018;10.144;2024-02-28T07:52:00;8.35;;;3.28;;
75885;SDS011;64561;44.018;10.144;2024-02-28T07:54:27;10.48;;;3.13;;
75885;SDS011;64561;44.018;10.144;2024-02-28T07:56:54;8.98;;;2.85;;
75885;SDS011;64561;44.018;10.144;2024-02-28T07:59:22;10.48;;;3.35;;
75885;SDS011;64561;44.018;10.144;2024-02-28T08:01:49;8.30;;;3.10;;
75885;SDS011;64561;44.018;10.144;2024-02-28T08:04:17;9.00;;;3.47;;
75885;SDS011;64561;44.018;10.144;2024-02-28T08:06:45;6.72;;;4.15;;
75885;SDS011;64561;44.018;10.144;2024-02-28T08:09:12;10.45;;;3.83;;
75885;SDS011;64561;44.018;10.144;2024-02-28T08:11:42;7.88;;;4.30;;
75885;SDS011;64561;44.018;10.144;2024-02-28T08:14:09;13.75;;;5.88;;
75885;SDS011;64561;44.018;10.144;2024-02-28T08:16:37;10.10;;;5.22;;
75885;SDS011;64561;44.018;10.144;2024-02-28T08:19:04;10.70;;;4.35;;
75885;SDS011;64561;44.018;10.144;2024-02-28T08:21:32;16.45;;;5.13;;
75885;SDS011;64561;44.018;10.144;2024-02-28T08:23:59;8.57;;;4.38;;
75885;SDS011;64561;44.018;10.144;2024-02-28T08:26:29;10.77;;;4.68;;
75885;SDS011;64561;44.018;10.144;2024-02-28T08:28:57;10.63;;;5.15;;
75885;SDS011;64561;44.018;10.144;2024-02-28T08:31:24;10.90;;;5.40;;
75885;SDS011;64561;44.018;10.144;2024-02-28T08:33:51;9.20;;;5.80;;
75885;SDS011;64561;44.018;10.144;2024-02-28T08:36:19;14.63;;;6.50;;
75885;SDS011;64561;44.018;10.144;2024-02-28T08:38:46;13.88;;;6.57;;
75885;SDS011;64561;44.018;10.144;2024-02-28T08:41:14;14.10;;;6.20;;
75885;SDS011;64561;44.018;10.144;2024-02-28T08:43:41;13.77;;;6.57;;
75885;SDS011;64561;44.018;10.144;2024-02-28T08:46:08;16.25;;;6.35;;
75885;SDS011;64561;44.018;10.144;2024-02-28T08:48:40;12.55;;;6.55;;
75885;SDS011;64561;44.018;10.144;2024-02-28T08:51:08;11.18;;;7.32;;
75885;SDS011;64561;44.018;10.144;2024-02-28T08:53:35;14.70;;;5.93;;
75885;SDS011;64561;44.018;10.144;2024-02-28T08:56:02;9.43;;;5.03;;
75885;SDS011;64561;44.018;10.144;2024-02-28T08:58:30;11.60;;;4.75;;
75885;SDS011;64561;44.018;10.144;2024-02-28T09:00:57;10.60;;;4.43;;
75885;SDS011;64561;44.018;10.144;2024-02-28T09:03:25;9.32;;;3.70;;
75885;SDS011;64561;44.018;10.144;2024-02-28T09:05:52;10.77;;;3.63;;
75885;SDS011;64561;44.018;10.144;2024-02-28T09:08:19;9.07;;;3.05;;
75885;SDS011;64561;44.018;10.144;2024-02-28T09:10:46;12.32;;;3.58;;
75885;SDS011;64561;44.018;10.144;2024-02-28T09:13:14;6.50;;;3.00;;
75885;SDS011;64561;44.018;10.144;2024-02-28T09:15:42;10.98;;;3.30;;
75885;SDS011;64561;44.018;10.144;2024-02-28T09:18:10;6.47;;;2.67;;
75885;SDS011;64561;44.018;10.144;2024-02-28T09:20:37;9.35;;;2.70;;
75885;SDS011;64561;44.018;10.144;2024-02-28T09:23:06;6.57;;;3.13;;
75885;SDS011;64561;44.018;10.144;2024-02-28T09:25:34;8.27;;;3.17;;
75885;SDS011;64561;44.018;10.144;2024-02-28T09:28:02;8.52;;;2.88;;
75885;SDS011;64561;44.018;10.144;2024-02-28T09:30:29;6.53;;;2.40;;
75885;SDS011;64561;44.018;10.144;2024-02-28T09:33:11;5.97;;;2.13;;
75885;SDS011;64561;44.018;10.144;2024-02-28T09:35:39;10.25;;;2.72;;
75885;SDS011;64561;44.018;10.144;2024-02-28T09:38:07;8.27;;;2.38;;
75885;SDS011;64561;44.018;10.144;2024-02-28T09:40:34;5.15;;;2.50;;
75885;SDS011;64561;44.018;10.144;2024-02-28T09:43:02;3.33;;;2.40;;
75885;SDS011;64561;44.018;10.144;2024-02-28T09:45:30;6.28;;;2.08;;
75885;SDS011;64561;44.018;10.144;2024-02-28T09:48:02;10.18;;;2.83;;
75885;SDS011;64561;44.018;10.144;2024-02-28T09:50:30;9.70;;;2.40;;
75885;SDS011;64561;44.018;10.144;2024-02-28T09:52:57;8.95;;;1.92;;
75885;SDS011;64561;44.018;10.144;2024-02-28T09:55:36;6.65;;;1.63;;
75885;SDS011;64561;44.018;10.144;2024-02-28T09:58:03;8.32;;;1.50;;
75885;SDS011;64561;44.018;10.144;2024-02-28T10:00:31;5.60;;;1.45;;
75885;SDS011;64561;44.018;10.144;2024-02-28T10:03:00;5.93;;;1.63;;
75885;SDS011;64561;44.018;10.144;2024-02-28T10:05:29;7.15;;;1.73;;
75885;SDS011;64561;44.018;10.144;2024-02-28T10:07:57;6.72;;;1.85;;
75885;SDS011;64561;44.018;10.144;2024-02-28T10:10:24;7.50;;;2.15;;
75885;SDS011;64561;44.018;10.144;2024-02-28T10:12:51;8.05;;;2.17;;
75885;SDS011;64561;44.018;10.144;2024-02-28T10:15:19;10.35;;;2.83;;
75885;SDS011;64561;44.018;10.144;2024-02-28T10:17:46;8.57;;;2.30;;
75885;SDS011;64561;44.018;10.144;2024-02-28T10:20:13;6.93;;;2.90;;
75885;SDS011;64561;44.018;10.144;2024-02-28T10:22:40;6.55;;;3.25;;
75885;SDS011;64561;44.018;10.144;2024-02-28T10:25:08;9.00;;;2.95;;
75885;SDS011;64561;44.018;10.144;2024-02-28T10:27:36;8.48;;;3.63;;
75885;SDS011;64561;44.018;10.144;2024-02-28T10:30:03;7.22;;;2.08;;
75885;SDS011;64561;44.018;10.144;2024-02-28T10:32:34;5.32;;;1.42;;
75885;SDS011;64561;44.018;10.144;2024-02-28T10:35:03;8.07;;;1.92;;
75885;SDS011;64561;44.018;10.144;2024-02-28T10:37:31;8.40;;;1.85;;
75885;SDS011;64561;44.018;10.144;2024-02-28T10:39:59;10.38;;;2.25;;
75885;SDS011;64561;44.018;10.144;2024-02-28T10:42:29;8.55;;;1.98;;
75885;SDS011;64561;44.018;10.144;2024-02-28T10:44:57;5.70;;;2.13;;
75885;SDS011;64561;44.018;10.144;2024-02-28T10:47:49;7.10;;;2.33;;
75885;SDS011;64561;44.018;10.144;2024-02-28T10:50:17;7.38;;;2.20;;
75885;SDS011;64561;44.018;10.144;2024-02-28T10:52:44;9.45;;;2.15;;
75885;SDS011;64561;44.018;10.144;2024-02-28T10:55:20;9.40;;;1.98;;
75885;SDS011;64561;44.018;10.144;2024-02-28T10:57:53;6.93;;;1.92;;
75885;SDS011;64561;44.018;10.144;2024-02-28T11:00:28;10.18;;;2.60;;
75885;SDS011;64561;44.018;10.144;2024-02-28T11:02:56;9.05;;;2.53;;
75885;SDS011;64561;44.018;10.144;2024-02-28T11:05:34;7.18;;;2.33;;
75885;SDS011;64561;44.018;10.144;2024-02-28T11:10:42;12.40;;;2.30;;
75885;SDS011;64561;44.018;10.144;2024-02-28T11:13:11;10.10;;;3.83;;
75885;SDS011;64561;44.018;10.144;2024-02-28T11:15:48;9.35;;;2.80;;
75885;SDS011;64561;44.018;10.144;2024-02-28T11:18:16;11.32;;;3.42;;
75885;SDS011;64561;44.018;10.144;2024-02-28T11:20:43;7.00;;;2.20;;
75885;SDS011;64561;44.018;10.144;2024-02-28T11:23:13;5.88;;;2.72;;
75885;SDS011;64561;44.018;10.144;2024-02-28T11:25:43;9.75;;;2.83;;
75885;SDS011;64561;44.018;10.144;2024-02-28T11:28:10;7.90;;;2.97;;
75885;SDS011;64561;44.018;10.144;2024-02-28T11:30:38;5.53;;;2.72;;
75885;SDS011;64561;44.018;10.144;2024-02-28T11:33:05;8.70;;;2.80;;
75885;SDS011;64561;44.018;10.144;2024-02-28T11:35:35;9.23;;;3.03;;
75885;SDS011;64561;44.018;10.144;2024-02-28T11:38:03;12.90;;;3.35;;
75885;SDS011;64561;44.018;10.144;2024-02-28T11:40:33;6.45;;;2.70;;
75885;SDS011;64561;44.018;10.144;2024-02-28T11:43:01;7.15;;;2.95;;
75885;SDS011;64561;44.018;10.144;2024-02-28T11:45:30;14.02;;;3.40;;
75885;SDS011;64561;44.018;10.144;2024-02-28T11:47:58;8.00;;;2.75;;
75885;SDS011;64561;44.018;10.144;2024-02-28T11:50:25;8.43;;;3.00;;
75885;SDS011;64561;44.018;10.144;2024-02-28T11:52:53;11.88;;;4.05;;
75885;SDS011;64561;44.018;10.144;2024-02-28T11:55:20;13.18;;;4.88;;
75885;SDS011;64561;44.018;10.144;2024-02-28T11:57:48;14.48;;;3.55;;
75885;SDS011;64561;44.018;10.144;2024-02-28T12:00:15;8.60;;;3.50;;
75885;SDS011;64561;44.018;10.144;2024-02-28T12:02:42;12.05;;;4.40;;
75885;SDS011;64561;44.018;10.144;2024-02-28T12:05:09;7.85;;;3.55;;
75885;SDS011;64561;44.018;10.144;2024-02-28T12:07:36;9.20;;;3.80;;
75885;SDS011;64561;44.018;10.144;2024-02-28T12:10:04;9.13;;;3.20;;
75885;SDS011;64561;44.018;10.144;2024-02-28T12:12:33;13.40;;;3.72;;
75885;SDS011;64561;44.018;10.144;2024-02-28T12:15:01;7.00;;;4.60;;
75885;SDS011;64561;44.018;10.144;2024-02-28T12:17:32;13.77;;;4.38;;
75885;SDS011;64561;44.018;10.144;2024-02-28T12:19:59;12.88;;;3.83;;
75885;SDS011;64561;44.018;10.144;2024-02-28T12:22:29;12.50;;;4.25;;
75885;SDS011;64561;44.018;10.144;2024-02-28T12:24:57;18.13;;;4.82;;
75885;SDS011;64561;44.018;10.144;2024-02-28T12:27:24;15.98;;;4.05;;
75885;SDS011;64561;44.018;10.144;2024-02-28T12:29:52;11.98;;;3.47;;
75885;SDS011;64561;44.018;10.144;2024-02-28T12:34:06;8.57;;;3.83;;
75885;SDS011;64561;44.018;10.144;2024-02-28T12:36:34;7.45;;;3.40;;
75885;SDS011;64561;44.018;10.144;2024-02-28T12:39:01;11.18;;;2.97;;
75885;SDS011;64561;44.018;10.144;2024-02-28T12:41:30;6.03;;;2.92;;
75885;SDS011;64561;44.018;10.144;2024-02-28T12:43:57;12.15;;;3.45;;
75885;SDS011;64561;44.018;10.144;2024-02-28T12:46:24;9.13;;;3.15;;
75885;SDS011;64561;44.018;10.144;2024-02-28T12:48:52;7.18;;;2.72;;
75885;SDS011;64561;44.018;10.144;2024-02-28T12:54:08;11.43;;;4.13;;
75885;SDS011;64561;44.018;10.144;2024-02-28T12:56:36;8.88;;;3.75;;
75885;SDS011;64561;44.018;10.144;2024-02-28T12:59:06;7.25;;;2.80;;
75885;SDS011;64561;44.018;10.144;2024-02-28T13:04:04;11.52;;;3.53;;
75885;SDS011;64561;44.018;10.144;2024-02-28T13:06:32;7.28;;;2.55;;
75885;SDS011;64561;44.018;10.144;2024-02-28T13:09:00;6.90;;;1.70;;
75885;SDS011;64561;44.018;10.144;2024-02-28T13:11:27;7.85;;;2.30;;
75885;SDS011;64561;44.018;10.144;2024-02-28T13:13:55;2.97;;;1.60;;
75885;SDS011;64561;44.018;10.144;2024-02-28T13:16:22;11.02;;;3.60;;
75885;SDS011;64561;44.018;10.144;2024-02-28T13:18:50;4.95;;;1.60;;
75885;SDS011;64561;44.018;10.144;2024-02-28T13:21:17;9.98;;;2.83;;
75885;SDS011;64561;44.018;10.144;2024-02-28T13:23:45;9.90;;;3.03;;
75885;SDS011;64561;44.018;10.144;2024-02-28T13:26:12;10.30;;;3.30;;
75885;SDS011;64561;44.018;10.144;2024-02-28T13:28:46;8.40;;;2.45;;
75885;SDS011;64561;44.018;10.144;2024-02-28T13:31:18;9.35;;;2.75;;
75885;SDS011;64561;44.018;10.144;2024-02-28T13:33:45;7.38;;;2.28;;
75885;SDS011;64561;44.018;10.144;2024-02-28T13:36:21;7.80;;;3.70;;
75885;SDS011;64561;44.018;10.144;2024-02-28T13:38:48;10.63;;;4.10;;
75885;SDS011;64561;44.018;10.144;2024-02-28T13:41:16;8.77;;;2.85;;
75885;SDS011;64561;44.018;10.144;2024-02-28T13:43:43;7.47;;;2.67;;
75885;SDS011;64561;44.018;10.144;2024-02-28T13:46:11;9.82;;;3.08;;
75885;SDS011;64561;44.018;10.144;2024-02-28T13:48:38;7.50;;;2.45;;
75885;SDS011;64561;44.018;10.144;2024-02-28T13:51:05;8.00;;;2.05;;
75885;SDS011;64561;44.018;10.144;2024-02-28T13:53:33;3.85;;;1.65;;
75885;SDS011;64561;44.018;10.144;2024-02-28T13:56:00;8.38;;;2.22;;
75885;SDS011;64561;44.018;10.144;2024-02-28T13:58:27;12.57;;;2.50;;
75885;SDS011;64561;44.018;10.144;2024-02-28T14:01:08;10.95;;;2.40;;
75885;SDS011;64561;44.018;10.144;2024-02-28T14:03:36;7.38;;;2.33;;
75885;SDS011;64561;44.018;10.144;2024-02-28T14:06:08;13.32;;;3.45;;
75885;SDS011;64561;44.018;10.144;2024-02-28T14:08:35;6.78;;;2.42;;
75885;SDS011;64561;44.018;10.144;2024-02-28T14:11:03;9.77;;;1.88;;
75885;SDS011;64561;44.018;10.144;2024-02-28T14:13:31;11.20;;;1.90;;
75885;SDS011;64561;44.018;10.144;2024-02-28T14:15:59;7.55;;;1.85;;
75885;SDS011;64561;44.018;10.144;2024-02-28T14:18:26;6.80;;;2.17;;
75885;SDS011;64561;44.018;10.144;2024-02-28T14:20:54;9.63;;;2.92;;
75885;SDS011;64561;44.018;10.144;2024-02-28T14:23:21;9.63;;;3.22;;
75885;SDS011;64561;44.018;10.144;2024-02-28T14:25:48;6.65;;;1.75;;
75885;SDS011;64561;44.018;10.144;2024-02-28T14:28:17;8.77;;;1.90;;
75885;SDS011;64561;44.018;10.144;2024-02-28T14:30:46;9.02;;;2.10;;
75885;SDS011;64561;44.018;10.144;2024-02-28T14:33:16;5.78;;;1.80;;
75885;SDS011;64561;44.018;10.144;2024-02-28T14:35:44;9.23;;;2.33;;
75885;SDS011;64561;44.018;10.144;2024-02-28T14:38:11;9.57;;;2.30;;
75885;SDS011;64561;44.018;10.144;2024-02-28T14:40:39;13.48;;;2.38;;
75885;SDS011;64561;44.018;10.144;2024-02-28T14:43:07;7.70;;;1.67;;
75885;SDS011;64561;44.018;10.144;2024-02-28T14:45:35;7.80;;;2.50;;